0°C Temp
-1°C Dewpoint
93% Humidity
Temperature
19 KM/H
12 MPH
10 KTS
290°
West North
West

Wind Speed
Snow Showers
Pressure 1002.42 (hPa) - 29.6 (in)
Visibility 1.0 (mi) - 1.6 (km)

Current Conditions
CYZE
Location 50(km)
Metar :CYZE 261635Z AUTO 29010KT 1SM -SN BKN006 OVC016 M00/M01 A2960 RMK SLP035
Sun 26th January 11:35 am

Airport
  Metar Aviation API Data Provided by https://www.checkwx.com/ PHP scripts by weather34.com ©2020